sensor_id;sensor_type;location;lat;lon;timestamp;P1;durP1;ratioP1;P2;durP2;ratioP2
3016;SDS011;1518;52.408;13.060;2023-02-15T00:02:27;11.07;;;7.65;;
3016;SDS011;1518;52.408;13.060;2023-02-15T00:05:15;10.82;;;8.27;;
3016;SDS011;1518;52.408;13.060;2023-02-15T00:08:04;10.75;;;7.03;;
3016;SDS011;1518;52.408;13.060;2023-02-15T00:10:52;9.13;;;8.05;;
3016;SDS011;1518;52.408;13.060;2023-02-15T00:13:40;8.43;;;6.60;;
3016;SDS011;1518;52.408;13.060;2023-02-15T00:16:30;8.60;;;7.25;;
3016;SDS011;1518;52.408;13.060;2023-02-15T00:19:19;9.77;;;7.78;;
3016;SDS011;1518;52.408;13.060;2023-02-15T00:22:08;10.65;;;7.32;;
3016;SDS011;1518;52.408;13.060;2023-02-15T00:24:56;8.70;;;7.57;;
3016;SDS011;1518;52.408;13.060;2023-02-15T00:27:44;8.20;;;7.03;;
3016;SDS011;1518;52.408;13.060;2023-02-15T00:30:32;9.90;;;7.13;;
3016;SDS011;1518;52.408;13.060;2023-02-15T00:33:21;9.10;;;7.57;;
3016;SDS011;1518;52.408;13.060;2023-02-15T00:36:12;10.88;;;7.28;;
3016;SDS011;1518;52.408;13.060;2023-02-15T00:39:00;10.48;;;7.80;;
3016;SDS011;1518;52.408;13.060;2023-02-15T00:41:49;7.38;;;6.50;;
3016;SDS011;1518;52.408;13.060;2023-02-15T00:44:37;9.60;;;7.90;;
3016;SDS011;1518;52.408;13.060;2023-02-15T00:47:25;10.93;;;8.27;;
3016;SDS011;1518;52.408;13.060;2023-02-15T00:50:14;10.57;;;7.35;;
3016;SDS011;1518;52.408;13.060;2023-02-15T00:53:03;9.77;;;7.30;;
3016;SDS011;1518;52.408;13.060;2023-02-15T00:55:51;11.70;;;7.82;;
3016;SDS011;1518;52.408;13.060;2023-02-15T00:58:39;10.73;;;7.43;;
3016;SDS011;1518;52.408;13.060;2023-02-15T01:01:27;9.80;;;8.10;;
3016;SDS011;1518;52.408;13.060;2023-02-15T01:04:15;10.48;;;7.40;;
3016;SDS011;1518;52.408;13.060;2023-02-15T01:07:05;11.18;;;8.48;;
3016;SDS011;1518;52.408;13.060;2023-02-15T01:09:53;11.63;;;7.65;;
3016;SDS011;1518;52.408;13.060;2023-02-15T01:12:41;9.88;;;7.68;;
3016;SDS011;1518;52.408;13.060;2023-02-15T01:15:29;12.23;;;8.02;;
3016;SDS011;1518;52.408;13.060;2023-02-15T01:18:17;8.45;;;7.10;;
3016;SDS011;1518;52.408;13.060;2023-02-15T01:21:09;10.65;;;7.68;;
3016;SDS011;1518;52.408;13.060;2023-02-15T01:24:01;9.55;;;7.22;;
3016;SDS011;1518;52.408;13.060;2023-02-15T01:26:50;9.88;;;8.00;;
3016;SDS011;1518;52.408;13.060;2023-02-15T01:29:38;9.10;;;6.93;;
3016;SDS011;1518;52.408;13.060;2023-02-15T01:32:26;8.95;;;7.18;;
3016;SDS011;1518;52.408;13.060;2023-02-15T01:35:14;8.82;;;6.97;;
3016;SDS011;1518;52.408;13.060;2023-02-15T01:38:02;10.20;;;7.18;;
3016;SDS011;1518;52.408;13.060;2023-02-15T01:40:51;9.65;;;7.60;;
3016;SDS011;1518;52.408;13.060;2023-02-15T01:43:40;11.05;;;7.93;;
3016;SDS011;1518;52.408;13.060;2023-02-15T01:46:30;9.75;;;7.80;;
3016;SDS011;1518;52.408;13.060;2023-02-15T01:49:23;10.68;;;7.40;;
3016;SDS011;1518;52.408;13.060;2023-02-15T01:52:15;8.32;;;6.55;;
3016;SDS011;1518;52.408;13.060;2023-02-15T01:55:05;9.48;;;7.35;;
3016;SDS011;1518;52.408;13.060;2023-02-15T01:57:56;9.88;;;6.78;;
3016;SDS011;1518;52.408;13.060;2023-02-15T02:00:44;9.20;;;7.25;;
3016;SDS011;1518;52.408;13.060;2023-02-15T02:03:35;8.25;;;7.03;;
3016;SDS011;1518;52.408;13.060;2023-02-15T02:06:28;10.40;;;8.10;;
3016;SDS011;1518;52.408;13.060;2023-02-15T02:09:18;9.68;;;7.00;;
3016;SDS011;1518;52.408;13.060;2023-02-15T02:12:06;10.52;;;7.43;;
3016;SDS011;1518;52.408;13.060;2023-02-15T02:14:57;7.85;;;6.55;;
3016;SDS011;1518;52.408;13.060;2023-02-15T02:17:50;9.43;;;7.65;;
3016;SDS011;1518;52.408;13.060;2023-02-15T02:20:52;9.40;;;7.70;;
3016;SDS011;1518;52.408;13.060;2023-02-15T02:24:01;9.43;;;7.60;;
3016;SDS011;1518;52.408;13.060;2023-02-15T02:30:28;10.25;;;8.88;;
3016;SDS011;1518;52.408;13.060;2023-02-15T02:33:46;9.70;;;7.63;;
3016;SDS011;1518;52.408;13.060;2023-02-15T02:36:41;9.10;;;7.05;;
3016;SDS011;1518;52.408;13.060;2023-02-15T02:39:39;8.68;;;7.70;;
3016;SDS011;1518;52.408;13.060;2023-02-15T02:42:34;10.25;;;7.78;;
3016;SDS011;1518;52.408;13.060;2023-02-15T02:45:27;8.60;;;6.82;;
3016;SDS011;1518;52.408;13.060;2023-02-15T02:48:19;12.27;;;8.43;;
3016;SDS011;1518;52.408;13.060;2023-02-15T02:51:12;11.88;;;7.47;;
3016;SDS011;1518;52.408;13.060;2023-02-15T02:54:06;9.60;;;7.57;;
3016;SDS011;1518;52.408;13.060;2023-02-15T02:56:55;9.82;;;7.35;;
3016;SDS011;1518;52.408;13.060;2023-02-15T02:59:46;10.55;;;7.53;;
3016;SDS011;1518;52.408;13.060;2023-02-15T03:02:37;10.30;;;7.53;;
3016;SDS011;1518;52.408;13.060;2023-02-15T03:05:28;11.00;;;7.43;;
3016;SDS011;1518;52.408;13.060;2023-02-15T03:08:19;10.68;;;7.65;;
3016;SDS011;1518;52.408;13.060;2023-02-15T03:11:10;10.85;;;8.35;;
3016;SDS011;1518;52.408;13.060;2023-02-15T03:13:59;11.02;;;7.93;;
3016;SDS011;1518;52.408;13.060;2023-02-15T03:16:47;10.52;;;7.47;;
3016;SDS011;1518;52.408;13.060;2023-02-15T03:19:37;10.10;;;8.18;;
3016;SDS011;1518;52.408;13.060;2023-02-15T03:22:28;10.98;;;7.88;;
3016;SDS011;1518;52.408;13.060;2023-02-15T03:25:21;11.68;;;8.68;;
3016;SDS011;1518;52.408;13.060;2023-02-15T03:28:13;9.90;;;7.47;;
3016;SDS011;1518;52.408;13.060;2023-02-15T03:31:06;10.93;;;7.43;;
3016;SDS011;1518;52.408;13.060;2023-02-15T03:33:57;10.57;;;7.88;;
3016;SDS011;1518;52.408;13.060;2023-02-15T03:36:50;9.00;;;6.88;;
3016;SDS011;1518;52.408;13.060;2023-02-15T03:39:45;12.38;;;7.95;;
3016;SDS011;1518;52.408;13.060;2023-02-15T03:42:37;7.93;;;7.13;;
3016;SDS011;1518;52.408;13.060;2023-02-15T03:45:28;10.43;;;7.45;;
3016;SDS011;1518;52.408;13.060;2023-02-15T03:48:18;10.50;;;7.05;;
3016;SDS011;1518;52.408;13.060;2023-02-15T03:51:07;8.70;;;7.13;;
3016;SDS011;1518;52.408;13.060;2023-02-15T03:54:16;12.48;;;7.25;;
3016;SDS011;1518;52.408;13.060;2023-02-15T03:57:25;9.25;;;7.55;;
3016;SDS011;1518;52.408;13.060;2023-02-15T04:00:45;8.43;;;6.70;;
3016;SDS011;1518;52.408;13.060;2023-02-15T04:04:01;8.85;;;7.65;;
3016;SDS011;1518;52.408;13.060;2023-02-15T04:06:54;9.50;;;7.35;;
3016;SDS011;1518;52.408;13.060;2023-02-15T04:09:42;10.55;;;7.93;;
3016;SDS011;1518;52.408;13.060;2023-02-15T04:12:48;9.07;;;7.85;;
3016;SDS011;1518;52.408;13.060;2023-02-15T04:15:36;11.05;;;8.05;;
3016;SDS011;1518;52.408;13.060;2023-02-15T04:18:43;11.57;;;8.35;;
3016;SDS011;1518;52.408;13.060;2023-02-15T04:21:49;12.05;;;8.45;;
3016;SDS011;1518;52.408;13.060;2023-02-15T04:24:55;12.20;;;8.15;;
3016;SDS011;1518;52.408;13.060;2023-02-15T04:27:58;11.20;;;7.93;;
3016;SDS011;1518;52.408;13.060;2023-02-15T04:30:46;11.05;;;8.07;;
3016;SDS011;1518;52.408;13.060;2023-02-15T04:33:34;11.93;;;8.98;;
3016;SDS011;1518;52.408;13.060;2023-02-15T04:36:24;11.73;;;7.70;;
3016;SDS011;1518;52.408;13.060;2023-02-15T04:39:12;11.95;;;9.13;;
3016;SDS011;1518;52.408;13.060;2023-02-15T04:42:01;12.55;;;8.52;;
3016;SDS011;1518;52.408;13.060;2023-02-15T04:44:49;11.93;;;7.93;;
3016;SDS011;1518;52.408;13.060;2023-02-15T04:47:37;14.32;;;9.55;;
3016;SDS011;1518;52.408;13.060;2023-02-15T04:50:25;14.88;;;9.40;;
3016;SDS011;1518;52.408;13.060;2023-02-15T04:53:14;16.33;;;11.18;;
3016;SDS011;1518;52.408;13.060;2023-02-15T04:56:03;11.60;;;8.27;;
3016;SDS011;1518;52.408;13.060;2023-02-15T04:58:52;12.52;;;9.15;;
3016;SDS011;1518;52.408;13.060;2023-02-15T05:01:40;13.60;;;9.93;;
3016;SDS011;1518;52.408;13.060;2023-02-15T05:04:28;14.68;;;10.45;;
3016;SDS011;1518;52.408;13.060;2023-02-15T05:07:16;14.43;;;9.60;;
3016;SDS011;1518;52.408;13.060;2023-02-15T05:10:08;16.48;;;9.50;;
3016;SDS011;1518;52.408;13.060;2023-02-15T05:12:56;11.68;;;8.27;;
3016;SDS011;1518;52.408;13.060;2023-02-15T05:15:46;13.60;;;8.82;;
3016;SDS011;1518;52.408;13.060;2023-02-15T05:18:35;11.48;;;8.85;;
3016;SDS011;1518;52.408;13.060;2023-02-15T05:21:23;13.30;;;8.80;;
3016;SDS011;1518;52.408;13.060;2023-02-15T05:24:12;12.48;;;8.40;;
3016;SDS011;1518;52.408;13.060;2023-02-15T05:27:19;10.85;;;7.28;;
3016;SDS011;1518;52.408;13.060;2023-02-15T05:30:25;12.80;;;8.80;;
3016;SDS011;1518;52.408;13.060;2023-02-15T05:33:13;13.98;;;9.43;;
3016;SDS011;1518;52.408;13.060;2023-02-15T05:36:01;14.20;;;8.77;;
3016;SDS011;1518;52.408;13.060;2023-02-15T05:38:51;13.17;;;8.73;;
3016;SDS011;1518;52.408;13.060;2023-02-15T05:41:39;12.52;;;8.77;;
3016;SDS011;1518;52.408;13.060;2023-02-15T05:44:29;15.05;;;8.95;;
3016;SDS011;1518;52.408;13.060;2023-02-15T05:47:17;11.75;;;8.30;;
3016;SDS011;1518;52.408;13.060;2023-02-15T05:50:05;12.13;;;9.10;;
3016;SDS011;1518;52.408;13.060;2023-02-15T05:52:54;12.88;;;8.77;;
3016;SDS011;1518;52.408;13.060;2023-02-15T05:55:42;10.48;;;7.68;;
3016;SDS011;1518;52.408;13.060;2023-02-15T05:58:30;12.93;;;8.23;;
3016;SDS011;1518;52.408;13.060;2023-02-15T06:01:21;11.05;;;8.65;;
3016;SDS011;1518;52.408;13.060;2023-02-15T06:04:09;14.80;;;9.73;;
3016;SDS011;1518;52.408;13.060;2023-02-15T06:06:57;12.27;;;8.75;;
3016;SDS011;1518;52.408;13.060;2023-02-15T06:09:45;12.73;;;8.35;;
3016;SDS011;1518;52.408;13.060;2023-02-15T06:12:33;14.50;;;9.18;;
3016;SDS011;1518;52.408;13.060;2023-02-15T06:15:21;12.65;;;8.77;;
3016;SDS011;1518;52.408;13.060;2023-02-15T06:18:11;12.05;;;8.60;;
3016;SDS011;1518;52.408;13.060;2023-02-15T06:20:59;13.25;;;9.23;;
3016;SDS011;1518;52.408;13.060;2023-02-15T06:23:47;17.10;;;9.68;;
3016;SDS011;1518;52.408;13.060;2023-02-15T06:26:35;14.57;;;9.40;;
3016;SDS011;1518;52.408;13.060;2023-02-15T06:29:23;12.80;;;8.38;;
3016;SDS011;1518;52.408;13.060;2023-02-15T06:32:11;16.23;;;8.85;;
3016;SDS011;1518;52.408;13.060;2023-02-15T06:35:01;12.98;;;8.93;;
3016;SDS011;1518;52.408;13.060;2023-02-15T06:37:49;23.15;;;15.00;;
3016;SDS011;1518;52.408;13.060;2023-02-15T06:40:37;15.65;;;11.68;;
3016;SDS011;1518;52.408;13.060;2023-02-15T06:43:25;16.65;;;10.13;;
3016;SDS011;1518;52.408;13.060;2023-02-15T06:46:13;14.48;;;10.40;;
3016;SDS011;1518;52.408;13.060;2023-02-15T06:49:01;15.52;;;9.82;;
3016;SDS011;1518;52.408;13.060;2023-02-15T06:51:51;15.30;;;8.98;;
3016;SDS011;1518;52.408;13.060;2023-02-15T06:54:39;13.13;;;9.00;;
3016;SDS011;1518;52.408;13.060;2023-02-15T06:57:27;14.85;;;8.48;;
3016;SDS011;1518;52.408;13.060;2023-02-15T07:00:15;13.18;;;8.40;;
3016;SDS011;1518;52.408;13.060;2023-02-15T07:03:04;12.50;;;8.70;;
3016;SDS011;1518;52.408;13.060;2023-02-15T07:05:53;16.25;;;10.15;;
3016;SDS011;1518;52.408;13.060;2023-02-15T07:08:43;22.33;;;13.50;;
3016;SDS011;1518;52.408;13.060;2023-02-15T07:11:32;24.40;;;14.88;;
3016;SDS011;1518;52.408;13.060;2023-02-15T07:14:46;21.02;;;14.85;;
3016;SDS011;1518;52.408;13.060;2023-02-15T07:17:34;24.20;;;14.82;;
3016;SDS011;1518;52.408;13.060;2023-02-15T07:20:23;21.05;;;10.13;;
3016;SDS011;1518;52.408;13.060;2023-02-15T07:23:11;16.08;;;10.40;;
3016;SDS011;1518;52.408;13.060;2023-02-15T07:26:00;15.55;;;9.98;;
3016;SDS011;1518;52.408;13.060;2023-02-15T07:28:49;16.13;;;8.57;;
3016;SDS011;1518;52.408;13.060;2023-02-15T07:31:37;12.95;;;8.27;;
3016;SDS011;1518;52.408;13.060;2023-02-15T07:34:25;13.18;;;7.90;;
3016;SDS011;1518;52.408;13.060;2023-02-15T07:37:13;17.83;;;8.45;;
3016;SDS011;1518;52.408;13.060;2023-02-15T07:40:01;12.63;;;8.43;;
3016;SDS011;1518;52.408;13.060;2023-02-15T07:42:51;19.95;;;9.20;;
3016;SDS011;1518;52.408;13.060;2023-02-15T07:45:41;17.58;;;9.25;;
3016;SDS011;1518;52.408;13.060;2023-02-15T07:48:29;20.05;;;9.98;;
3016;SDS011;1518;52.408;13.060;2023-02-15T07:51:17;12.25;;;8.15;;
3016;SDS011;1518;52.408;13.060;2023-02-15T07:54:05;17.08;;;8.82;;
3016;SDS011;1518;52.408;13.060;2023-02-15T07:56:54;15.80;;;9.37;;
3016;SDS011;1518;52.408;13.060;2023-02-15T07:59:43;17.23;;;9.35;;
3016;SDS011;1518;52.408;13.060;2023-02-15T08:02:31;12.27;;;8.52;;
3016;SDS011;1518;52.408;13.060;2023-02-15T08:05:20;13.10;;;8.88;;
3016;SDS011;1518;52.408;13.060;2023-02-15T08:08:09;12.02;;;8.55;;
3016;SDS011;1518;52.408;13.060;2023-02-15T08:11:17;10.52;;;8.13;;
3016;SDS011;1518;52.408;13.060;2023-02-15T08:14:13;19.95;;;10.35;;
3016;SDS011;1518;52.408;13.060;2023-02-15T08:17:05;15.48;;;8.93;;
3016;SDS011;1518;52.408;13.060;2023-02-15T08:19:53;15.95;;;9.77;;
3016;SDS011;1518;52.408;13.060;2023-02-15T08:22:41;14.48;;;10.00;;
3016;SDS011;1518;52.408;13.060;2023-02-15T08:25:29;18.45;;;10.10;;
3016;SDS011;1518;52.408;13.060;2023-02-15T08:28:17;11.23;;;8.18;;
3016;SDS011;1518;52.408;13.060;2023-02-15T08:31:05;16.70;;;10.43;;
3016;SDS011;1518;52.408;13.060;2023-02-15T08:33:56;13.13;;;8.33;;
3016;SDS011;1518;52.408;13.060;2023-02-15T08:36:44;19.50;;;13.98;;
3016;SDS011;1518;52.408;13.060;2023-02-15T08:39:32;42.73;;;25.70;;
3016;SDS011;1518;52.408;13.060;2023-02-15T08:42:21;44.63;;;24.42;;
3016;SDS011;1518;52.408;13.060;2023-02-15T08:45:09;30.55;;;17.27;;
3016;SDS011;1518;52.408;13.060;2023-02-15T08:47:58;26.38;;;16.08;;
3016;SDS011;1518;52.408;13.060;2023-02-15T08:50:47;23.63;;;14.23;;
3016;SDS011;1518;52.408;13.060;2023-02-15T08:53:35;14.32;;;8.88;;
3016;SDS011;1518;52.408;13.060;2023-02-15T08:56:25;13.40;;;8.68;;
3016;SDS011;1518;52.408;13.060;2023-02-15T08:59:16;10.85;;;8.10;;
3016;SDS011;1518;52.408;13.060;2023-02-15T09:02:05;12.63;;;8.45;;
3016;SDS011;1518;52.408;13.060;2023-02-15T09:04:53;9.60;;;7.28;;
3016;SDS011;1518;52.408;13.060;2023-02-15T09:07:43;15.55;;;7.75;;
3016;SDS011;1518;52.408;13.060;2023-02-15T09:10:31;11.10;;;6.97;;
3016;SDS011;1518;52.408;13.060;2023-02-15T09:13:19;10.80;;;7.93;;
3016;SDS011;1518;52.408;13.060;2023-02-15T09:16:08;10.05;;;7.47;;
3016;SDS011;1518;52.408;13.060;2023-02-15T09:18:57;12.38;;;8.27;;
3016;SDS011;1518;52.408;13.060;2023-02-15T09:21:45;11.32;;;7.55;;
3016;SDS011;1518;52.408;13.060;2023-02-15T09:24:36;8.98;;;7.20;;
3016;SDS011;1518;52.408;13.060;2023-02-15T09:27:24;8.95;;;7.15;;
3016;SDS011;1518;52.408;13.060;2023-02-15T09:30:12;10.55;;;7.55;;
3016;SDS011;1518;52.408;13.060;2023-02-15T09:33:01;10.85;;;8.07;;
3016;SDS011;1518;52.408;13.060;2023-02-15T09:35:49;13.30;;;9.50;;
3016;SDS011;1518;52.408;13.060;2023-02-15T09:38:37;11.70;;;8.32;;
3016;SDS011;1518;52.408;13.060;2023-02-15T09:41:32;10.25;;;7.70;;
3016;SDS011;1518;52.408;13.060;2023-02-15T09:44:51;11.38;;;8.23;;
3016;SDS011;1518;52.408;13.060;2023-02-15T09:51:36;11.68;;;7.70;;
3016;SDS011;1518;52.408;13.060;2023-02-15T09:54:41;19.27;;;11.43;;
3016;SDS011;1518;52.408;13.060;2023-02-15T09:57:48;10.73;;;8.30;;
3016;SDS011;1518;52.408;13.060;2023-02-15T10:00:47;14.07;;;9.82;;
3016;SDS011;1518;52.408;13.060;2023-02-15T10:03:45;19.63;;;9.73;;
3016;SDS011;1518;52.408;13.060;2023-02-15T10:06:42;21.38;;;8.55;;
3016;SDS011;1518;52.408;13.060;2023-02-15T10:09:40;12.75;;;9.23;;
3016;SDS011;1518;52.408;13.060;2023-02-15T10:12:40;16.17;;;10.02;;
3016;SDS011;1518;52.408;13.060;2023-02-15T10:15:53;12.32;;;8.23;;
3016;SDS011;1518;52.408;13.060;2023-02-15T10:18:55;15.45;;;8.07;;
3016;SDS011;1518;52.408;13.060;2023-02-15T10:21:54;12.98;;;9.18;;
3016;SDS011;1518;52.408;13.060;2023-02-15T10:24:55;11.93;;;9.13;;
3016;SDS011;1518;52.408;13.060;2023-02-15T10:28:11;14.15;;;8.70;;
3016;SDS011;1518;52.408;13.060;2023-02-15T10:31:06;11.70;;;9.00;;
3016;SDS011;1518;52.408;13.060;2023-02-15T10:34:10;13.50;;;8.45;;
3016;SDS011;1518;52.408;13.060;2023-02-15T10:37:06;13.95;;;9.88;;
3016;SDS011;1518;52.408;13.060;2023-02-15T10:40:24;15.90;;;10.32;;
3016;SDS011;1518;52.408;13.060;2023-02-15T10:43:23;17.27;;;9.65;;
3016;SDS011;1518;52.408;13.060;2023-02-15T10:46:26;13.30;;;9.40;;
3016;SDS011;1518;52.408;13.060;2023-02-15T10:52:44;11.93;;;9.25;;
3016;SDS011;1518;52.408;13.060;2023-02-15T10:55:45;11.13;;;8.82;;
3016;SDS011;1518;52.408;13.060;2023-02-15T10:58:45;13.45;;;10.02;;
3016;SDS011;1518;52.408;13.060;2023-02-15T11:01:40;14.60;;;10.02;;
3016;SDS011;1518;52.408;13.060;2023-02-15T11:04:37;14.00;;;10.10;;
3016;SDS011;1518;52.408;13.060;2023-02-15T11:07:29;14.70;;;9.60;;
3016;SDS011;1518;52.408;13.060;2023-02-15T11:10:25;17.88;;;8.85;;
3016;SDS011;1518;52.408;13.060;2023-02-15T11:13:18;14.38;;;8.52;;
3016;SDS011;1518;52.408;13.060;2023-02-15T11:16:10;13.25;;;9.38;;
3016;SDS011;1518;52.408;13.060;2023-02-15T11:19:05;10.98;;;8.50;;
3016;SDS011;1518;52.408;13.060;2023-02-15T11:21:57;12.45;;;10.18;;
3016;SDS011;1518;52.408;13.060;2023-02-15T11:24:48;14.50;;;10.75;;
3016;SDS011;1518;52.408;13.060;2023-02-15T11:27:36;13.23;;;8.98;;
3016;SDS011;1518;52.408;13.060;2023-02-15T11:30:26;13.88;;;10.27;;
3016;SDS011;1518;52.408;13.060;2023-02-15T11:33:22;16.75;;;10.90;;
3016;SDS011;1518;52.408;13.060;2023-02-15T11:36:15;13.30;;;10.05;;
3016;SDS011;1518;52.408;13.060;2023-02-15T11:39:09;13.50;;;10.07;;
3016;SDS011;1518;52.408;13.060;2023-02-15T11:42:01;13.57;;;10.30;;
3016;SDS011;1518;52.408;13.060;2023-02-15T11:44:56;14.40;;;8.82;;
3016;SDS011;1518;52.408;13.060;2023-02-15T11:47:48;15.77;;;9.60;;
3016;SDS011;1518;52.408;13.060;2023-02-15T11:50:38;13.07;;;8.80;;
3016;SDS011;1518;52.408;13.060;2023-02-15T11:53:28;12.05;;;9.00;;
3016;SDS011;1518;52.408;13.060;2023-02-15T11:56:20;10.35;;;8.38;;
3016;SDS011;1518;52.408;13.060;2023-02-15T11:59:10;14.10;;;8.48;;
3016;SDS011;1518;52.408;13.060;2023-02-15T12:02:01;13.40;;;9.30;;
3016;SDS011;1518;52.408;13.060;2023-02-15T12:04:50;16.00;;;10.10;;
3016;SDS011;1518;52.408;13.060;2023-02-15T12:07:43;11.88;;;9.23;;
3016;SDS011;1518;52.408;13.060;2023-02-15T12:10:34;14.43;;;9.55;;
3016;SDS011;1518;52.408;13.060;2023-02-15T12:13:27;11.52;;;8.88;;
3016;SDS011;1518;52.408;13.060;2023-02-15T12:16:16;10.55;;;7.85;;
3016;SDS011;1518;52.408;13.060;2023-02-15T12:19:04;24.27;;;9.85;;
3016;SDS011;1518;52.408;13.060;2023-02-15T12:21:58;11.90;;;9.05;;
3016;SDS011;1518;52.408;13.060;2023-02-15T12:24:50;12.18;;;8.65;;
3016;SDS011;1518;52.408;13.060;2023-02-15T12:27:40;12.85;;;9.57;;
3016;SDS011;1518;52.408;13.060;2023-02-15T12:30:31;14.40;;;9.45;;
3016;SDS011;1518;52.408;13.060;2023-02-15T12:33:25;9.43;;;8.43;;
3016;SDS011;1518;52.408;13.060;2023-02-15T12:36:17;13.55;;;8.68;;
3016;SDS011;1518;52.408;13.060;2023-02-15T12:39:16;11.65;;;8.15;;
3016;SDS011;1518;52.408;13.060;2023-02-15T12:42:14;11.15;;;8.23;;
3016;SDS011;1518;52.408;13.060;2023-02-15T12:45:19;14.90;;;8.57;;
3016;SDS011;1518;52.408;13.060;2023-02-15T12:48:15;13.40;;;8.75;;
3016;SDS011;1518;52.408;13.060;2023-02-15T12:51:06;15.30;;;8.73;;
3016;SDS011;1518;52.408;13.060;2023-02-15T12:53:57;9.93;;;7.85;;
3016;SDS011;1518;52.408;13.060;2023-02-15T12:56:47;10.95;;;8.20;;
3016;SDS011;1518;52.408;13.060;2023-02-15T12:59:37;9.40;;;7.93;;
3016;SDS011;1518;52.408;13.060;2023-02-15T13:02:36;10.73;;;8.52;;
3016;SDS011;1518;52.408;13.060;2023-02-15T13:05:31;11.70;;;9.43;;
3016;SDS011;1518;52.408;13.060;2023-02-15T13:08:21;14.98;;;8.73;;
3016;SDS011;1518;52.408;13.060;2023-02-15T13:11:19;15.07;;;9.75;;
3016;SDS011;1518;52.408;13.060;2023-02-15T13:14:15;16.73;;;10.35;;
3016;SDS011;1518;52.408;13.060;2023-02-15T13:17:07;17.23;;;9.57;;
3016;SDS011;1518;52.408;13.060;2023-02-15T13:19:57;12.57;;;9.35;;
3016;SDS011;1518;52.408;13.060;2023-02-15T13:22:50;15.45;;;9.02;;
3016;SDS011;1518;52.408;13.060;2023-02-15T13:25:43;13.38;;;9.10;;
3016;SDS011;1518;52.408;13.060;2023-02-15T13:28:37;9.63;;;8.48;;
3016;SDS011;1518;52.408;13.060;2023-02-15T13:31:28;11.45;;;8.48;;
3016;SDS011;1518;52.408;13.060;2023-02-15T13:34:22;10.65;;;8.60;;
3016;SDS011;1518;52.408;13.060;2023-02-15T13:37:14;13.02;;;8.45;;
3016;SDS011;1518;52.408;13.060;2023-02-15T13:40:08;10.18;;;7.90;;
3016;SDS011;1518;52.408;13.060;2023-02-15T13:43:04;9.63;;;7.97;;
3016;SDS011;1518;52.408;13.060;2023-02-15T13:46:05;11.82;;;8.27;;
3016;SDS011;1518;52.408;13.060;2023-02-15T13:49:07;10.05;;;7.45;;
3016;SDS011;1518;52.408;13.060;2023-02-15T13:52:07;8.82;;;7.32;;
3016;SDS011;1518;52.408;13.060;2023-02-15T13:55:16;10.35;;;7.15;;
3016;SDS011;1518;52.408;13.060;2023-02-15T13:58:16;10.93;;;7.30;;
3016;SDS011;1518;52.408;13.060;2023-02-15T14:01:27;11.30;;;8.38;;
3016;SDS011;1518;52.408;13.060;2023-02-15T14:04:26;9.70;;;7.13;;
3016;SDS011;1518;52.408;13.060;2023-02-15T14:07:32;8.93;;;7.03;;
3016;SDS011;1518;52.408;13.060;2023-02-15T14:10:43;8.77;;;6.95;;
3016;SDS011;1518;52.408;13.060;2023-02-15T14:13:54;13.30;;;7.20;;
3016;SDS011;1518;52.408;13.060;2023-02-15T14:16:54;8.63;;;6.70;;
3016;SDS011;1518;52.408;13.060;2023-02-15T14:19:54;7.80;;;5.82;;
3016;SDS011;1518;52.408;13.060;2023-02-15T14:22:51;7.35;;;6.50;;
3016;SDS011;1518;52.408;13.060;2023-02-15T14:25:47;7.43;;;6.68;;
3016;SDS011;1518;52.408;13.060;2023-02-15T14:28:40;8.52;;;6.20;;
3016;SDS011;1518;52.408;13.060;2023-02-15T14:31:34;8.30;;;6.45;;
3016;SDS011;1518;52.408;13.060;2023-02-15T14:34:26;8.23;;;6.68;;
3016;SDS011;1518;52.408;13.060;2023-02-15T14:37:23;7.25;;;6.20;;
3016;SDS011;1518;52.408;13.060;2023-02-15T14:40:26;9.02;;;6.97;;
3016;SDS011;1518;52.408;13.060;2023-02-15T14:43:43;10.05;;;6.95;;
3016;SDS011;1518;52.408;13.060;2023-02-15T14:46:44;13.30;;;8.85;;
3016;SDS011;1518;52.408;13.060;2023-02-15T14:49:40;12.15;;;7.70;;
3016;SDS011;1518;52.408;13.060;2023-02-15T14:52:28;9.95;;;7.57;;
3016;SDS011;1518;52.408;13.060;2023-02-15T14:55:16;10.63;;;7.45;;
3016;SDS011;1518;52.408;13.060;2023-02-15T14:58:24;9.43;;;7.05;;
3016;SDS011;1518;52.408;13.060;2023-02-15T15:01:12;9.90;;;6.20;;
3016;SDS011;1518;52.408;13.060;2023-02-15T15:04:01;10.43;;;6.82;;
3016;SDS011;1518;52.408;13.060;2023-02-15T15:06:58;8.35;;;6.20;;
3016;SDS011;1518;52.408;13.060;2023-02-15T15:09:58;8.20;;;5.82;;
3016;SDS011;1518;52.408;13.060;2023-02-15T15:12:50;7.80;;;5.88;;
3016;SDS011;1518;52.408;13.060;2023-02-15T15:15:44;7.82;;;6.25;;
3016;SDS011;1518;52.408;13.060;2023-02-15T15:18:51;6.30;;;5.70;;
3016;SDS011;1518;52.408;13.060;2023-02-15T15:21:55;7.20;;;6.32;;
3016;SDS011;1518;52.408;13.060;2023-02-15T15:24:50;6.65;;;5.15;;
3016;SDS011;1518;52.408;13.060;2023-02-15T15:27:44;6.90;;;5.38;;
3016;SDS011;1518;52.408;13.060;2023-02-15T15:33:59;7.40;;;5.85;;
3016;SDS011;1518;52.408;13.060;2023-02-15T15:40:32;8.32;;;7.15;;
3016;SDS011;1518;52.408;13.060;2023-02-15T15:43:59;7.28;;;6.07;;
3016;SDS011;1518;52.408;13.060;2023-02-15T15:47:20;6.63;;;5.05;;
3016;SDS011;1518;52.408;13.060;2023-02-15T15:50:20;8.98;;;5.68;;
3016;SDS011;1518;52.408;13.060;2023-02-15T15:53:12;6.45;;;5.85;;
3016;SDS011;1518;52.408;13.060;2023-02-15T15:56:08;6.40;;;5.75;;
3016;SDS011;1518;52.408;13.060;2023-02-15T15:59:01;6.88;;;5.38;;
3016;SDS011;1518;52.408;13.060;2023-02-15T16:01:52;8.88;;;5.72;;
3016;SDS011;1518;52.408;13.060;2023-02-15T16:04:43;6.22;;;5.63;;
3016;SDS011;1518;52.408;13.060;2023-02-15T16:07:34;6.53;;;4.85;;
3016;SDS011;1518;52.408;13.060;2023-02-15T16:10:23;9.25;;;5.22;;
3016;SDS011;1518;52.408;13.060;2023-02-15T16:13:13;6.22;;;5.00;;
3016;SDS011;1518;52.408;13.060;2023-02-15T16:16:02;6.85;;;5.80;;
3016;SDS011;1518;52.408;13.060;2023-02-15T16:18:51;7.70;;;5.57;;
3016;SDS011;1518;52.408;13.060;2023-02-15T16:21:41;6.00;;;4.80;;
3016;SDS011;1518;52.408;13.060;2023-02-15T16:24:37;6.60;;;4.80;;
3016;SDS011;1518;52.408;13.060;2023-02-15T16:27:40;6.60;;;5.40;;
3016;SDS011;1518;52.408;13.060;2023-02-15T16:30:30;6.32;;;5.72;;
3016;SDS011;1518;52.408;13.060;2023-02-15T16:33:20;7.28;;;5.10;;
3016;SDS011;1518;52.408;13.060;2023-02-15T16:36:10;7.13;;;5.07;;
3016;SDS011;1518;52.408;13.060;2023-02-15T16:39:16;8.50;;;5.95;;
3016;SDS011;1518;52.408;13.060;2023-02-15T16:42:05;6.95;;;5.82;;
3016;SDS011;1518;52.408;13.060;2023-02-15T16:44:54;7.28;;;6.57;;
3016;SDS011;1518;52.408;13.060;2023-02-15T16:47:55;9.15;;;5.35;;
3016;SDS011;1518;52.408;13.060;2023-02-15T16:50:46;7.35;;;5.55;;
3016;SDS011;1518;52.408;13.060;2023-02-15T16:53:38;8.23;;;5.80;;
3016;SDS011;1518;52.408;13.060;2023-02-15T16:56:29;10.70;;;6.28;;
3016;SDS011;1518;52.408;13.060;2023-02-15T16:59:19;8.32;;;6.75;;
3016;SDS011;1518;52.408;13.060;2023-02-15T17:02:16;8.20;;;6.78;;
3016;SDS011;1518;52.408;13.060;2023-02-15T17:05:30;8.10;;;6.47;;
3016;SDS011;1518;52.408;13.060;2023-02-15T17:08:23;9.00;;;7.15;;
3016;SDS011;1518;52.408;13.060;2023-02-15T17:11:14;9.80;;;7.85;;
3016;SDS011;1518;52.408;13.060;2023-02-15T17:14:13;9.00;;;6.18;;
3016;SDS011;1518;52.408;13.060;2023-02-15T17:17:07;7.68;;;6.47;;
3016;SDS011;1518;52.408;13.060;2023-02-15T17:20:01;8.40;;;6.82;;
3016;SDS011;1518;52.408;13.060;2023-02-15T17:22:50;7.82;;;7.03;;
3016;SDS011;1518;52.408;13.060;2023-02-15T17:25:39;10.43;;;7.25;;
3016;SDS011;1518;52.408;13.060;2023-02-15T17:28:30;7.60;;;6.70;;
3016;SDS011;1518;52.408;13.060;2023-02-15T17:31:20;9.23;;;7.03;;
3016;SDS011;1518;52.408;13.060;2023-02-15T17:34:12;9.30;;;6.75;;
3016;SDS011;1518;52.408;13.060;2023-02-15T17:37:30;9.68;;;7.68;;
3016;SDS011;1518;52.408;13.060;2023-02-15T17:40:30;9.30;;;7.35;;
3016;SDS011;1518;52.408;13.060;2023-02-15T17:43:19;10.65;;;7.75;;
3016;SDS011;1518;52.408;13.060;2023-02-15T17:46:07;8.57;;;7.63;;